Pembroke, North Carolina
Current Conditions -  °F | °C
As of 10:54 AM on Tuesday 21 Oct 2014 (Local Time) from KLBT Reporting Station
Clear Clear  
Wind Chill: 70°   Ceiling: Unl
Heat Index: 70°   Visibility: 10mi
Dew Point: 55°   Wind: 7mph
Humidity: 59%   Direction: 310°NW
Pressure: 29.94"   Gusts: NA
Location:  34.68°N, 79.2°W
Report Text: KLBT 211454Z AUTO 31006KT 10SM CLR 21/13 A2994 RMK AO2 SLP136 T02110128 58001
Loading
Personal Weather Stations






























Interactive Weather Map New forecast layout! Learn more

10-Day Weather Forecast

Advertisements
Track Severe Weather on mobile